createdAt,value
2019-06-26T00:00:15.105Z,26.20
2019-06-26T00:01:15.074Z,30.30
2019-06-26T00:02:15.063Z,28.00
2019-06-26T00:03:15.091Z,29.50
2019-06-26T00:04:15.042Z,28.30
2019-06-26T00:05:15.052Z,27.50
2019-06-26T00:06:15.024Z,26.80
2019-06-26T00:07:15.022Z,28.60
2019-06-26T00:08:15.049Z,39.60
2019-06-26T00:09:14.988Z,32.90
2019-06-26T00:10:14.997Z,30.30
2019-06-26T00:11:14.972Z,38.70
2019-06-26T00:12:14.968Z,28.40
2019-06-26T00:13:25.587Z,27.40
2019-06-26T00:14:15.933Z,28.10
2019-06-26T00:15:15.085Z,54.80
2019-06-26T00:16:14.913Z,26.50
2019-06-26T00:17:14.903Z,29.60
2019-06-26T00:18:14.905Z,31.90
2019-06-26T00:19:14.884Z,95.90
2019-06-26T00:20:14.873Z,34.40
2019-06-26T00:21:14.871Z,29.20
2019-06-26T00:22:14.873Z,29.60
2019-06-26T00:23:14.842Z,30.40
2019-06-26T00:24:14.823Z,32.90
2019-06-26T00:25:14.813Z,62.50
2019-06-26T00:26:14.833Z,32.80
2019-06-26T00:27:14.796Z,34.10
2019-06-26T00:28:14.803Z,28.20
2019-06-26T00:29:14.772Z,27.40
2019-06-26T00:30:14.767Z,27.50
2019-06-26T00:31:14.763Z,28.10
2019-06-26T00:32:14.746Z,24.70
2019-06-26T00:33:14.731Z,24.30
2019-06-26T00:34:14.720Z,32.30
2019-06-26T00:35:14.712Z,27.80
2019-06-26T00:36:14.713Z,43.30
2019-06-26T00:37:14.704Z,27.90
2019-06-26T00:38:14.682Z,26.50
2019-06-26T00:39:14.682Z,30.60
2019-06-26T00:40:14.653Z,24.50
2019-06-26T00:41:14.660Z,24.20
2019-06-26T00:42:14.634Z,25.50
2019-06-26T00:43:14.626Z,24.50
2019-06-26T00:44:14.612Z,50.50
2019-06-26T00:45:14.602Z,29.90
2019-06-26T00:46:14.604Z,41.00
2019-06-26T00:47:14.587Z,73.00
2019-06-26T00:48:14.564Z,22.40
2019-06-26T00:49:14.561Z,36.80
2019-06-26T00:50:14.553Z,51.00
2019-06-26T00:51:14.560Z,28.60
2019-06-26T00:52:14.533Z,33.00
2019-06-26T00:53:14.513Z,34.80
2019-06-26T00:54:14.520Z,29.40
2019-06-26T00:55:14.496Z,31.90
2019-06-26T00:56:14.499Z,38.50
2019-06-26T00:57:14.490Z,29.40
2019-06-26T00:58:14.467Z,27.50
2019-06-26T00:59:14.518Z,29.40
2019-06-26T01:00:14.450Z,29.60
2019-06-26T01:01:14.442Z,29.50
2019-06-26T01:02:14.422Z,28.20
2019-06-26T01:03:14.422Z,29.80
2019-06-26T01:04:14.401Z,31.70
2019-06-26T01:05:14.393Z,42.00
2019-06-26T01:06:14.402Z,25.90
2019-06-26T01:07:14.372Z,25.50
2019-06-26T01:08:14.362Z,26.90
2019-06-26T01:09:14.386Z,25.50
2019-06-26T01:10:14.338Z,25.80
2019-06-26T01:11:14.353Z,24.70
2019-06-26T01:12:14.342Z,56.70
2019-06-26T01:13:14.324Z,44.20
2019-06-26T01:14:14.292Z,73.80
2019-06-26T01:15:14.282Z,24.20
2019-06-26T01:16:14.282Z,63.20
2019-06-26T01:17:14.282Z,24.30
2019-06-26T01:18:14.252Z,27.30
2019-06-26T01:19:14.241Z,28.50
2019-06-26T01:20:14.232Z,28.80
2019-06-26T01:21:14.221Z,24.80
2019-06-26T01:22:14.222Z,30.90
2019-06-26T01:23:14.202Z,64.00
2019-06-26T01:24:14.191Z,25.60
2019-06-26T01:25:14.181Z,25.60
2019-06-26T01:26:14.171Z,25.40
2019-06-26T01:27:14.172Z,25.00
2019-06-26T01:28:14.141Z,22.70
2019-06-26T01:29:14.138Z,21.80
2019-06-26T01:30:14.153Z,25.00
2019-06-26T01:31:14.122Z,26.20
2019-06-26T01:32:14.121Z,25.00
2019-06-26T01:33:14.105Z,43.80
2019-06-26T01:34:14.082Z,24.10
2019-06-26T01:35:14.071Z,24.80
2019-06-26T01:36:14.061Z,23.70
2019-06-26T01:37:14.071Z,24.20
2019-06-26T01:38:14.040Z,24.20
2019-06-26T01:39:14.031Z,25.30
2019-06-26T01:40:14.032Z,40.80
2019-06-26T01:41:14.011Z,29.50
2019-06-26T01:42:14.021Z,25.40
2019-06-26T01:43:13.991Z,26.60
2019-06-26T01:44:15.464Z,24.10
2019-06-26T01:45:13.974Z,23.90
2019-06-26T01:46:13.960Z,54.50
2019-06-26T01:47:13.971Z,27.00
2019-06-26T01:48:13.932Z,22.90
2019-06-26T01:49:13.930Z,24.80
2019-06-26T01:50:13.921Z,29.40
2019-06-26T01:51:13.901Z,44.20
2019-06-26T01:52:13.917Z,25.80
2019-06-26T01:53:13.920Z,25.20
2019-06-26T01:54:13.888Z,25.70
2019-06-26T01:55:13.869Z,29.30
2019-06-26T01:56:13.853Z,33.60
2019-06-26T01:57:13.861Z,61.00
2019-06-26T01:58:13.831Z,28.90
2019-06-26T01:59:13.821Z,74.10
2019-06-26T02:00:13.812Z,28.90
2019-06-26T02:01:13.801Z,28.90
2019-06-26T02:02:13.820Z,43.60
2019-06-26T02:03:13.783Z,27.80
2019-06-26T02:04:15.720Z,36.50
2019-06-26T02:05:13.762Z,27.70
2019-06-26T02:06:13.779Z,25.40
2019-06-26T02:07:13.741Z,26.30
2019-06-26T02:08:13.741Z,29.70
2019-06-26T02:09:13.714Z,27.00
2019-06-26T02:10:13.700Z,33.60
2019-06-26T02:11:13.689Z,25.00
2019-06-26T02:12:13.679Z,27.10
2019-06-26T02:13:13.680Z,24.60
2019-06-26T02:14:29.524Z,74.00
2019-06-26T02:15:14.650Z,30.60
2019-06-26T02:16:13.641Z,24.70
2019-06-26T02:17:13.631Z,25.30
2019-06-26T02:18:13.628Z,24.50
2019-06-26T02:19:13.600Z,24.80
2019-06-26T02:20:13.598Z,40.10
2019-06-26T02:21:13.580Z,23.80
2019-06-26T02:22:13.578Z,28.10
2019-06-26T02:23:13.587Z,24.90
2019-06-26T02:24:13.550Z,38.50
2019-06-26T02:25:13.541Z,30.60
2019-06-26T02:26:13.533Z,31.60
2019-06-26T02:27:13.531Z,33.70
2019-06-26T02:28:13.538Z,32.50
2019-06-26T02:29:13.497Z,30.50
2019-06-26T02:30:13.490Z,46.00
2019-06-26T02:31:13.470Z,65.00
2019-06-26T02:32:13.468Z,33.60
2019-06-26T02:33:13.470Z,30.40
2019-06-26T02:34:13.443Z,28.70
2019-06-26T02:35:13.435Z,29.60
2019-06-26T02:36:13.433Z,31.60
2019-06-26T02:37:13.419Z,32.30
2019-06-26T02:38:13.409Z,28.90
2019-06-26T02:39:13.390Z,29.90
2019-06-26T02:40:13.380Z,29.70
2019-06-26T02:41:13.371Z,37.80
2019-06-26T02:42:13.361Z,29.90
2019-06-26T02:43:13.379Z,34.90
2019-06-26T02:44:13.337Z,28.70
2019-06-26T02:45:13.331Z,27.40
2019-06-26T02:46:13.370Z,28.60
2019-06-26T02:47:20.269Z,29.30
2019-06-26T02:48:14.308Z,31.20
2019-06-26T02:49:13.289Z,30.80
2019-06-26T02:50:13.274Z,27.20
2019-06-26T02:51:13.261Z,26.00
2019-06-26T02:52:13.256Z,25.60
2019-06-26T02:53:13.240Z,44.30
2019-06-26T02:54:13.239Z,48.50
2019-06-26T02:55:13.219Z,26.60
2019-06-26T02:56:13.216Z,26.90
2019-06-26T02:57:13.199Z,26.00
2019-06-26T02:58:13.260Z,27.30
2019-06-26T02:59:13.201Z,25.30
2019-06-26T03:00:13.169Z,24.00
2019-06-26T03:01:13.200Z,24.30
2019-06-26T03:02:13.159Z,24.30
2019-06-26T03:03:13.131Z,26.10
2019-06-26T03:04:13.135Z,27.40
2019-06-26T03:05:13.132Z,50.00
2019-06-26T03:06:13.099Z,92.20
2019-06-26T03:07:13.089Z,32.70
2019-06-26T03:08:13.078Z,28.10
2019-06-26T03:09:13.090Z,126.00
2019-06-26T03:10:13.059Z,73.80
2019-06-26T03:11:13.048Z,22.00
2019-06-26T03:12:13.038Z,32.80
2019-06-26T03:13:13.028Z,39.40
2019-06-26T03:14:13.030Z,23.50
2019-06-26T03:15:13.001Z,22.60
2019-06-26T03:16:12.998Z,24.60
2019-06-26T03:17:12.987Z,24.50
2019-06-26T03:18:12.969Z,25.10
2019-06-26T03:19:12.988Z,25.20
2019-06-26T03:20:12.949Z,25.10
2019-06-26T03:21:12.938Z,24.50
2019-06-26T03:22:12.928Z,24.20
2019-06-26T03:23:12.915Z,24.70
2019-06-26T03:24:12.919Z,24.70
2019-06-26T03:25:12.906Z,22.90
2019-06-26T03:26:12.880Z,22.60
2019-06-26T03:27:12.877Z,22.50
2019-06-26T03:28:12.858Z,25.00
2019-06-26T03:29:12.874Z,24.30
2019-06-26T03:30:12.838Z,24.90
2019-06-26T03:31:12.838Z,23.50
2019-06-26T03:32:12.836Z,22.00
2019-06-26T03:33:12.828Z,22.40
2019-06-26T03:34:12.828Z,26.20
2019-06-26T03:35:12.789Z,24.40
2019-06-26T03:36:12.784Z,24.00
2019-06-26T03:37:12.781Z,26.50
2019-06-26T03:38:12.757Z,27.10
2019-06-26T03:39:12.756Z,25.30
2019-06-26T03:40:33.745Z,23.00
2019-06-26T03:41:12.726Z,23.10
2019-06-26T03:42:12.716Z,25.70
2019-06-26T03:43:12.707Z,25.30
2019-06-26T03:44:12.696Z,25.60
2019-06-26T03:45:25.253Z,24.70
2019-06-26T03:46:13.677Z,25.50
2019-06-26T03:47:12.676Z,24.90
2019-06-26T03:48:12.661Z,25.00
2019-06-26T03:49:12.645Z,22.50
2019-06-26T03:50:12.644Z,24.10
2019-06-26T03:51:14.006Z,26.60
2019-06-26T03:52:12.607Z,26.50
2019-06-26T03:53:12.600Z,25.50
2019-06-26T03:54:12.589Z,25.10
2019-06-26T03:55:12.643Z,23.60
2019-06-26T03:56:12.580Z,25.00
2019-06-26T03:57:12.566Z,27.50
2019-06-26T03:58:12.567Z,23.40
2019-06-26T03:59:12.544Z,24.40
2019-06-26T04:00:12.538Z,24.00
2019-06-26T04:01:12.516Z,23.90
2019-06-26T04:02:12.508Z,24.00
2019-06-26T04:03:12.494Z,23.50
2019-06-26T04:04:12.565Z,27.30
2019-06-26T04:05:12.489Z,28.10
2019-06-26T04:06:12.921Z,26.00
2019-06-26T04:07:12.455Z,24.70
2019-06-26T04:08:12.446Z,23.40
2019-06-26T04:09:12.426Z,23.60
2019-06-26T04:10:12.435Z,24.70
2019-06-26T04:11:12.409Z,24.70
2019-06-26T04:12:12.436Z,24.50
2019-06-26T04:13:12.387Z,26.50
2019-06-26T04:14:12.377Z,23.60
2019-06-26T04:15:12.387Z,23.20
2019-06-26T04:16:12.366Z,24.40
2019-06-26T04:17:12.346Z,27.30
2019-06-26T04:18:12.335Z,26.40
2019-06-26T04:19:12.326Z,24.90
2019-06-26T04:20:13.379Z,24.30
2019-06-26T04:21:12.307Z,25.90
2019-06-26T04:22:12.307Z,23.40
2019-06-26T04:23:12.276Z,23.50
2019-06-26T04:24:12.273Z,23.80
2019-06-26T04:25:12.277Z,23.70
2019-06-26T04:26:12.255Z,22.40
2019-06-26T04:27:12.247Z,26.90
2019-06-26T04:28:12.227Z,23.60
2019-06-26T04:29:12.216Z,23.20
2019-06-26T04:30:12.235Z,25.40
2019-06-26T04:31:12.195Z,22.90
2019-06-26T04:32:12.191Z,25.40
2019-06-26T04:33:12.176Z,24.00
2019-06-26T04:34:12.166Z,23.80
2019-06-26T04:35:12.182Z,23.50
2019-06-26T04:36:12.155Z,23.50
2019-06-26T04:37:12.133Z,22.50
2019-06-26T04:38:12.116Z,21.60
2019-06-26T04:39:12.113Z,23.40
2019-06-26T04:40:12.095Z,22.90
2019-06-26T04:41:12.095Z,22.80
2019-06-26T04:42:12.089Z,21.10
2019-06-26T04:43:12.064Z,20.50
2019-06-26T04:44:12.063Z,20.40
2019-06-26T04:45:12.087Z,21.30
2019-06-26T04:46:12.098Z,20.30
2019-06-26T04:47:12.078Z,20.50
2019-06-26T04:48:12.016Z,21.70
2019-06-26T04:49:12.002Z,19.50
2019-06-26T04:50:11.996Z,20.30
2019-06-26T04:51:11.997Z,20.10
2019-06-26T04:52:11.976Z,19.70
2019-06-26T04:53:11.956Z,20.20
2019-06-26T04:54:11.954Z,19.60
2019-06-26T04:55:11.934Z,19.60
2019-06-26T04:56:11.943Z,21.30
2019-06-26T04:57:11.916Z,22.40
2019-06-26T04:58:11.905Z,20.20
2019-06-26T04:59:11.895Z,20.90
2019-06-26T05:00:11.885Z,21.10
2019-06-26T05:01:11.895Z,21.00
2019-06-26T05:02:11.867Z,21.00
2019-06-26T05:03:11.859Z,21.40
2019-06-26T05:04:11.844Z,20.40
2019-06-26T05:05:11.831Z,20.00
2019-06-26T05:06:11.842Z,20.30
2019-06-26T05:07:11.822Z,22.00
2019-06-26T05:08:11.807Z,20.70
2019-06-26T05:09:11.794Z,21.40
2019-06-26T05:10:11.783Z,21.30
2019-06-26T05:11:12.970Z,19.80
2019-06-26T05:12:11.755Z,20.40
2019-06-26T05:13:11.762Z,19.70
2019-06-26T05:14:11.742Z,19.90
2019-06-26T05:15:11.726Z,22.10
2019-06-26T05:16:15.592Z,20.30
2019-06-26T05:17:12.706Z,21.90
2019-06-26T05:18:11.696Z,22.30
2019-06-26T05:19:11.693Z,23.50
2019-06-26T05:20:11.675Z,22.10
2019-06-26T05:21:11.674Z,22.40
2019-06-26T05:22:11.654Z,22.20
2019-06-26T05:23:11.643Z,20.80
2019-06-26T05:24:11.632Z,22.10
2019-06-26T05:25:11.623Z,20.70
2019-06-26T05:26:11.648Z,22.40
2019-06-26T05:27:11.593Z,23.90
2019-06-26T05:28:11.592Z,24.80
2019-06-26T05:29:11.602Z,22.70
2019-06-26T05:30:11.571Z,19.90
2019-06-26T05:31:11.624Z,20.20
2019-06-26T05:32:11.547Z,21.60
2019-06-26T05:33:11.532Z,21.00
2019-06-26T05:34:11.522Z,21.60
2019-06-26T05:35:11.512Z,19.50
2019-06-26T05:36:11.524Z,20.80
2019-06-26T05:37:11.493Z,20.60
2019-06-26T05:38:11.490Z,22.10
2019-06-26T05:39:11.513Z,23.20
2019-06-26T05:40:11.468Z,21.10
2019-06-26T05:41:11.530Z,22.40
2019-06-26T05:42:11.519Z,20.80
2019-06-26T05:43:11.432Z,22.10
2019-06-26T05:44:11.412Z,22.60
2019-06-26T05:45:11.413Z,21.40
2019-06-26T05:46:11.400Z,21.40
2019-06-26T05:47:11.392Z,25.40
2019-06-26T05:48:11.384Z,21.60
2019-06-26T05:49:11.369Z,23.80
2019-06-26T05:50:11.360Z,23.30
2019-06-26T05:51:11.346Z,23.70
2019-06-26T05:52:11.342Z,22.30
2019-06-26T05:53:11.328Z,25.80
2019-06-26T05:54:11.317Z,24.80
2019-06-26T05:55:11.305Z,20.80
2019-06-26T05:56:11.291Z,23.40
2019-06-26T05:57:11.291Z,21.90
2019-06-26T05:58:11.275Z,21.80
2019-06-26T05:59:11.277Z,23.10
2019-06-26T06:00:11.249Z,22.10
2019-06-26T06:01:11.238Z,22.20
2019-06-26T06:02:11.240Z,21.10
2019-06-26T06:03:11.212Z,21.50
2019-06-26T06:04:11.211Z,20.40
2019-06-26T06:05:11.191Z,21.10
2019-06-26T06:06:11.183Z,21.10
2019-06-26T06:07:11.193Z,20.90
2019-06-26T06:08:11.164Z,22.20
2019-06-26T06:09:11.151Z,21.40
2019-06-26T06:10:11.143Z,21.40
2019-06-26T06:11:11.136Z,20.90
2019-06-26T06:12:11.139Z,18.40
2019-06-26T06:13:11.114Z,19.70
2019-06-26T06:14:11.102Z,21.00
2019-06-26T06:15:11.099Z,18.70
2019-06-26T06:16:11.081Z,18.20
2019-06-26T06:17:11.104Z,17.90
2019-06-26T06:18:11.074Z,21.40
2019-06-26T06:19:11.053Z,16.70
2019-06-26T06:20:11.033Z,18.50
2019-06-26T06:21:11.038Z,16.60
2019-06-26T06:22:11.012Z,16.00
2019-06-26T06:23:11.050Z,16.30
2019-06-26T06:24:10.996Z,19.60
2019-06-26T06:25:10.992Z,15.40
2019-06-26T06:26:10.974Z,19.30
2019-06-26T06:27:10.971Z,15.40
2019-06-26T06:28:10.963Z,14.40
2019-06-26T06:29:10.941Z,15.10
2019-06-26T06:30:10.934Z,15.40
2019-06-26T06:31:10.922Z,17.30
2019-06-26T06:32:10.912Z,15.80
2019-06-26T06:33:10.925Z,16.20
2019-06-26T06:34:10.891Z,13.70
2019-06-26T06:35:10.882Z,13.90
2019-06-26T06:36:10.874Z,14.40
2019-06-26T06:37:10.861Z,13.70
2019-06-26T06:38:10.862Z,14.00
2019-06-26T06:39:10.843Z,14.60
2019-06-26T06:40:10.830Z,13.90
2019-06-26T06:41:10.811Z,12.80
2019-06-26T06:42:10.802Z,12.80
2019-06-26T06:43:10.811Z,13.90
2019-06-26T06:44:10.785Z,14.10
2019-06-26T06:45:10.771Z,12.30
2019-06-26T06:46:10.762Z,12.80
2019-06-26T06:47:10.757Z,14.40
2019-06-26T06:48:10.751Z,13.30
2019-06-26T06:49:10.734Z,14.00
2019-06-26T06:50:10.741Z,16.10
2019-06-26T06:51:10.715Z,13.20
2019-06-26T06:52:10.703Z,12.80
2019-06-26T06:53:10.721Z,14.50
2019-06-26T06:54:10.680Z,15.30
2019-06-26T06:55:10.670Z,13.20
2019-06-26T06:56:10.660Z,15.60
2019-06-26T06:57:10.650Z,16.10
2019-06-26T06:58:10.650Z,14.40
2019-06-26T06:59:10.632Z,14.80
2019-06-26T07:00:10.612Z,12.20
2019-06-26T07:01:10.601Z,12.60
2019-06-26T07:02:10.604Z,14.60
2019-06-26T07:03:10.633Z,12.90
2019-06-26T07:04:10.581Z,15.10
2019-06-26T07:05:10.562Z,12.30
2019-06-26T07:06:10.555Z,15.80
2019-06-26T07:07:10.545Z,12.80
2019-06-26T07:08:10.531Z,13.20
2019-06-26T07:09:10.553Z,15.60
2019-06-26T07:10:10.510Z,13.40
2019-06-26T07:11:10.501Z,12.50
2019-06-26T07:12:10.502Z,14.00
2019-06-26T07:13:10.481Z,13.80
2019-06-26T07:14:10.502Z,11.50
2019-06-26T07:15:10.540Z,14.30
2019-06-26T07:16:10.458Z,14.10
2019-06-26T07:17:19.786Z,16.10
2019-06-26T07:18:11.421Z,14.10
2019-06-26T07:19:10.431Z,12.10
2019-06-26T07:20:10.410Z,12.40
2019-06-26T07:21:10.399Z,12.50
2019-06-26T07:22:10.389Z,13.60
2019-06-26T07:23:10.379Z,10.90
2019-06-26T07:24:10.437Z,10.70
2019-06-26T07:25:10.351Z,13.10
2019-06-26T07:26:13.305Z,11.40
2019-06-26T07:27:10.332Z,11.50
2019-06-26T07:28:10.350Z,10.60
2019-06-26T07:29:10.329Z,11.10
2019-06-26T07:30:10.307Z,11.20
2019-06-26T07:31:10.291Z,10.70
2019-06-26T07:32:10.283Z,12.50
2019-06-26T07:33:10.282Z,12.00
2019-06-26T07:34:10.272Z,11.50
2019-06-26T07:35:10.251Z,13.00
2019-06-26T07:36:10.243Z,13.40
2019-06-26T07:37:10.232Z,13.50
2019-06-26T07:38:10.244Z,15.80
2019-06-26T07:39:10.249Z,10.30
2019-06-26T07:40:10.202Z,12.90
2019-06-26T07:41:10.191Z,14.00
2019-06-26T07:42:10.201Z,11.10
2019-06-26T07:43:10.169Z,11.20
2019-06-26T07:44:10.177Z,10.70
2019-06-26T07:45:10.142Z,12.20
2019-06-26T07:46:10.142Z,13.20
2019-06-26T07:47:22.519Z,10.20
2019-06-26T07:48:11.113Z,10.40
2019-06-26T07:49:10.112Z,11.10
2019-06-26T07:50:10.100Z,13.30
2019-06-26T07:51:10.091Z,11.30
2019-06-26T07:52:10.079Z,11.40
2019-06-26T07:53:10.071Z,13.90
2019-06-26T07:54:10.075Z,13.50
2019-06-26T07:55:12.099Z,12.00
2019-06-26T07:56:10.032Z,12.40
2019-06-26T07:57:10.031Z,13.30
2019-06-26T07:58:10.015Z,12.10
2019-06-26T07:59:10.024Z,12.40
2019-06-26T08:00:09.995Z,12.50
2019-06-26T08:01:09.983Z,11.90
2019-06-26T08:02:09.977Z,12.70
2019-06-26T08:03:09.963Z,11.30
2019-06-26T08:04:09.965Z,11.80
2019-06-26T08:05:09.982Z,12.50
2019-06-26T08:06:09.931Z,17.50
2019-06-26T08:07:09.924Z,13.00
2019-06-26T08:08:09.912Z,13.10
2019-06-26T08:09:09.953Z,13.00
2019-06-26T08:10:09.885Z,12.40
2019-06-26T08:11:09.883Z,13.20
2019-06-26T08:12:09.871Z,13.30
2019-06-26T08:13:09.854Z,12.40
2019-06-26T08:14:09.843Z,13.10
2019-06-26T08:15:09.870Z,12.90
2019-06-26T08:16:09.827Z,12.60
2019-06-26T08:17:09.815Z,11.60
2019-06-26T08:18:09.812Z,15.30
2019-06-26T08:19:09.802Z,11.60
2019-06-26T08:20:09.793Z,14.70
2019-06-26T08:21:12.502Z,13.90
2019-06-26T08:22:09.762Z,13.10
2019-06-26T08:23:09.757Z,11.30
2019-06-26T08:24:09.751Z,12.60
2019-06-26T08:25:09.745Z,12.50
2019-06-26T08:26:09.722Z,12.90
2019-06-26T08:27:12.773Z,12.50
2019-06-26T08:28:09.705Z,14.40
2019-06-26T08:29:09.694Z,13.40
2019-06-26T08:30:09.694Z,13.60
2019-06-26T08:31:09.842Z,12.20
2019-06-26T08:32:09.664Z,12.30
2019-06-26T08:33:09.651Z,11.90
2019-06-26T08:34:09.644Z,13.30
2019-06-26T08:35:09.644Z,13.90
2019-06-26T08:36:09.616Z,15.80
2019-06-26T08:37:09.640Z,13.70
2019-06-26T08:38:15.149Z,13.20
2019-06-26T08:39:10.595Z,13.50
2019-06-26T08:40:09.594Z,13.10
2019-06-26T08:41:09.564Z,13.80
2019-06-26T08:42:09.562Z,11.40
2019-06-26T08:43:09.555Z,12.00
2019-06-26T08:44:09.548Z,13.30
2019-06-26T08:45:09.547Z,13.30
2019-06-26T08:46:09.518Z,14.10
2019-06-26T08:47:09.532Z,12.20
2019-06-26T08:48:19.368Z,16.10
2019-06-26T08:49:24.468Z,13.60
2019-06-26T08:50:10.498Z,12.50
2019-06-26T08:51:09.465Z,12.30
2019-06-26T08:52:09.465Z,13.00
2019-06-26T08:53:09.456Z,12.70
2019-06-26T08:54:09.435Z,12.50
2019-06-26T08:55:09.453Z,12.50
2019-06-26T08:56:09.485Z,11.90
2019-06-26T08:57:09.405Z,12.00
2019-06-26T08:58:09.397Z,11.20
2019-06-26T08:59:09.384Z,14.80
2019-06-26T09:00:09.425Z,13.70
2019-06-26T09:01:09.408Z,13.40
2019-06-26T09:02:09.420Z,14.40
2019-06-26T09:03:09.344Z,12.40
2019-06-26T09:04:09.333Z,11.80
2019-06-26T09:05:09.323Z,13.00
2019-06-26T09:06:09.325Z,11.60
2019-06-26T09:07:09.319Z,12.70
2019-06-26T09:08:09.416Z,13.00
2019-06-26T09:09:09.285Z,12.10
2019-06-26T09:10:09.276Z,12.50
2019-06-26T09:11:09.368Z,14.40
2019-06-26T09:12:09.256Z,11.00
2019-06-26T09:13:09.235Z,12.60
2019-06-26T09:14:09.233Z,11.80
2019-06-26T09:15:09.229Z,11.10
2019-06-26T09:16:09.236Z,10.00
2019-06-26T09:17:09.207Z,14.10
2019-06-26T09:18:09.193Z,12.40
2019-06-26T09:19:09.176Z,13.30
2019-06-26T09:20:09.176Z,13.80
2019-06-26T09:21:09.188Z,12.40
2019-06-26T09:22:09.146Z,10.80
2019-06-26T09:23:09.147Z,12.00
2019-06-26T09:24:09.417Z,11.30
2019-06-26T09:25:20.885Z,12.00
2019-06-26T09:26:10.141Z,11.60
2019-06-26T09:27:09.098Z,11.00
2019-06-26T09:28:09.086Z,10.60
2019-06-26T09:29:09.078Z,11.10
2019-06-26T09:30:09.066Z,12.00
2019-06-26T09:31:09.087Z,12.20
2019-06-26T09:32:09.055Z,10.40
2019-06-26T09:33:09.045Z,11.00
2019-06-26T09:34:09.036Z,11.80
2019-06-26T09:35:09.016Z,10.60
2019-06-26T09:36:09.029Z,11.30
2019-06-26T09:37:08.997Z,10.60
2019-06-26T09:38:08.988Z,12.70
2019-06-26T09:39:08.978Z,10.80
2019-06-26T09:40:08.971Z,14.10
2019-06-26T09:41:08.975Z,10.70
2019-06-26T09:42:08.948Z,10.80
2019-06-26T09:43:08.938Z,11.50
2019-06-26T09:44:08.928Z,11.70
2019-06-26T09:45:08.935Z,11.00
2019-06-26T09:46:08.918Z,10.30
2019-06-26T09:47:08.911Z,12.30
2019-06-26T09:48:08.892Z,13.00
2019-06-26T09:49:08.902Z,11.20
2019-06-26T09:50:08.881Z,10.20
2019-06-26T09:51:08.882Z,11.80
2019-06-26T09:52:08.864Z,9.60
2019-06-26T09:53:08.850Z,11.10
2019-06-26T09:54:08.848Z,10.70
2019-06-26T09:55:08.818Z,11.40
2019-06-26T09:56:08.847Z,9.90
2019-06-26T09:57:08.822Z,10.10
2019-06-26T09:58:08.796Z,10.10
2019-06-26T09:59:08.787Z,12.30
2019-06-26T10:00:08.774Z,10.70
2019-06-26T10:01:08.785Z,10.40
2019-06-26T10:02:08.751Z,9.50
2019-06-26T10:03:08.806Z,12.80
2019-06-26T10:04:08.763Z,9.10
2019-06-26T10:05:08.719Z,10.80
2019-06-26T10:06:08.729Z,12.20
2019-06-26T10:07:08.699Z,10.40
2019-06-26T10:08:08.691Z,12.50
2019-06-26T10:09:08.680Z,10.10
2019-06-26T10:10:08.671Z,11.70
2019-06-26T10:11:08.681Z,10.30
2019-06-26T10:12:08.690Z,9.90
2019-06-26T10:13:08.640Z,11.70
2019-06-26T10:14:08.638Z,11.80
2019-06-26T10:15:08.621Z,12.20
2019-06-26T10:16:08.621Z,10.80
2019-06-26T10:17:08.621Z,10.00
2019-06-26T10:18:08.593Z,11.50
2019-06-26T10:19:10.716Z,9.00
2019-06-26T10:20:08.578Z,12.80
2019-06-26T10:21:08.571Z,10.90
2019-06-26T10:22:08.570Z,11.00
2019-06-26T10:23:08.552Z,14.40
2019-06-26T10:24:08.548Z,9.30
2019-06-26T10:25:11.249Z,9.60
2019-06-26T10:26:08.513Z,13.70
2019-06-26T10:27:08.514Z,9.10
2019-06-26T10:28:08.494Z,10.30
2019-06-26T10:29:08.485Z,10.00
2019-06-26T10:30:08.486Z,10.90
2019-06-26T10:31:08.471Z,9.90
2019-06-26T10:32:08.471Z,10.10
2019-06-26T10:33:08.442Z,10.20
2019-06-26T10:34:10.156Z,12.40
2019-06-26T10:35:08.432Z,11.70
2019-06-26T10:36:08.412Z,11.40
2019-06-26T10:37:08.422Z,9.70
2019-06-26T10:38:08.400Z,11.30
2019-06-26T10:39:08.383Z,9.50
2019-06-26T10:40:08.382Z,14.60
2019-06-26T10:41:08.375Z,10.10
2019-06-26T10:42:08.373Z,12.20
2019-06-26T10:43:08.353Z,10.50
2019-06-26T10:44:08.361Z,10.10
2019-06-26T10:45:08.342Z,11.60
2019-06-26T10:46:08.323Z,9.10
2019-06-26T10:47:08.334Z,10.60
2019-06-26T10:48:08.309Z,12.30
2019-06-26T10:49:08.293Z,8.90
2019-06-26T10:50:08.283Z,9.80
2019-06-26T10:51:08.271Z,11.70
2019-06-26T10:52:08.293Z,9.60
2019-06-26T10:53:08.245Z,10.00
2019-06-26T10:54:08.243Z,10.90
2019-06-26T10:55:08.237Z,12.30
2019-06-26T10:56:08.221Z,8.20
2019-06-26T10:57:08.212Z,9.40
2019-06-26T10:58:08.214Z,8.50
2019-06-26T10:59:08.184Z,10.00
2019-06-26T11:00:08.186Z,8.50
2019-06-26T11:01:08.168Z,9.40
2019-06-26T11:02:08.155Z,12.20
2019-06-26T11:03:08.165Z,8.10
2019-06-26T11:04:08.134Z,9.10
2019-06-26T11:05:08.138Z,11.50
2019-06-26T11:06:08.115Z,12.20
2019-06-26T11:07:08.112Z,9.60
2019-06-26T11:08:08.113Z,8.90
2019-06-26T11:09:08.104Z,9.10
2019-06-26T11:10:08.088Z,8.50
2019-06-26T11:11:08.073Z,10.80
2019-06-26T11:12:08.116Z,10.10
2019-06-26T11:13:08.066Z,9.90
2019-06-26T11:14:08.044Z,10.60
2019-06-26T11:15:08.047Z,8.60
2019-06-26T11:16:08.093Z,8.80
2019-06-26T11:17:08.013Z,11.20
2019-06-26T11:18:08.016Z,9.90
2019-06-26T11:19:07.996Z,9.20
2019-06-26T11:20:07.995Z,10.40
2019-06-26T11:21:07.974Z,12.20
2019-06-26T11:22:07.965Z,9.70
2019-06-26T11:23:07.979Z,10.00
2019-06-26T11:24:07.954Z,10.60
2019-06-26T11:25:07.935Z,9.70
2019-06-26T11:26:07.932Z,11.30
2019-06-26T11:27:07.916Z,8.30
2019-06-26T11:28:07.923Z,11.10
2019-06-26T11:29:07.897Z,10.20
2019-06-26T11:30:07.887Z,10.50
2019-06-26T11:31:07.925Z,12.30
2019-06-26T11:32:09.545Z,11.90
2019-06-26T11:33:07.908Z,11.50
2019-06-26T11:34:07.863Z,9.00
2019-06-26T11:35:07.854Z,8.70
2019-06-26T11:36:07.830Z,11.00
2019-06-26T11:37:07.816Z,9.10
2019-06-26T11:38:07.835Z,8.70
2019-06-26T11:39:07.806Z,8.20
2019-06-26T11:40:07.856Z,14.40
2019-06-26T11:41:07.784Z,10.90
2019-06-26T11:42:07.778Z,9.10
2019-06-26T11:43:07.779Z,9.60
2019-06-26T11:44:07.756Z,11.80
2019-06-26T11:45:07.778Z,9.90
2019-06-26T11:46:07.753Z,10.10
2019-06-26T11:47:07.740Z,9.20
2019-06-26T11:48:07.727Z,11.20
2019-06-26T11:49:07.698Z,10.90
2019-06-26T11:50:07.715Z,9.50
2019-06-26T11:51:07.687Z,10.70
2019-06-26T11:52:07.693Z,10.40
2019-06-26T11:53:07.709Z,11.80
2019-06-26T11:54:07.668Z,9.90
2019-06-26T11:55:07.655Z,9.90
2019-06-26T11:56:07.637Z,8.80
2019-06-26T11:57:07.632Z,10.90
2019-06-26T11:58:07.629Z,10.30
2019-06-26T11:59:07.609Z,11.10
2019-06-26T12:00:07.603Z,8.80
2019-06-26T12:01:07.601Z,8.10
2019-06-26T12:02:07.589Z,8.20
2019-06-26T12:03:07.597Z,10.80
2019-06-26T12:04:07.568Z,12.00
2019-06-26T12:05:07.618Z,9.00
2019-06-26T12:06:18.016Z,11.90
2019-06-26T12:07:08.528Z,9.80
2019-06-26T12:08:07.759Z,11.90
2019-06-26T12:09:07.528Z,11.80
2019-06-26T12:10:07.735Z,9.00
2019-06-26T12:11:07.491Z,12.50
2019-06-26T12:12:07.490Z,9.20
2019-06-26T12:13:07.474Z,9.70
2019-06-26T12:14:07.482Z,10.30
2019-06-26T12:15:07.458Z,8.00
2019-06-26T12:16:07.456Z,10.40
2019-06-26T12:17:07.429Z,9.60
2019-06-26T12:18:07.430Z,9.90
2019-06-26T12:19:07.439Z,9.20
2019-06-26T12:20:17.700Z,10.10
2019-06-26T12:21:08.398Z,10.70
2019-06-26T12:22:07.391Z,9.80
2019-06-26T12:23:07.381Z,9.80
2019-06-26T12:24:07.379Z,11.50
2019-06-26T12:25:07.359Z,8.30
2019-06-26T12:26:07.360Z,9.70
2019-06-26T12:27:07.339Z,11.70
2019-06-26T12:28:07.330Z,9.60
2019-06-26T12:29:07.339Z,11.90
2019-06-26T12:30:07.331Z,10.50
2019-06-26T12:31:07.311Z,10.80
2019-06-26T12:32:07.293Z,11.10
2019-06-26T12:33:07.290Z,11.90
2019-06-26T12:34:07.301Z,9.90
2019-06-26T12:35:07.323Z,12.50
2019-06-26T12:36:07.261Z,9.10
2019-06-26T12:37:07.246Z,11.00
2019-06-26T12:38:07.233Z,10.10
2019-06-26T12:39:07.239Z,12.70
2019-06-26T12:40:07.214Z,11.60
2019-06-26T12:41:07.215Z,10.40
2019-06-26T12:42:07.192Z,11.30
2019-06-26T12:43:07.195Z,12.00
2019-06-26T12:44:07.191Z,9.80
2019-06-26T12:45:07.169Z,13.20
2019-06-26T12:46:07.161Z,10.10
2019-06-26T12:47:07.151Z,10.50
2019-06-26T12:48:07.147Z,7.80
2019-06-26T12:49:07.143Z,9.90
2019-06-26T12:50:07.600Z,10.70
2019-06-26T12:51:07.111Z,12.10
2019-06-26T12:52:07.115Z,11.60
2019-06-26T12:53:07.092Z,9.20
2019-06-26T12:54:07.098Z,8.50